Time,TemperatureF,DewpointF,PressureIn,WindDirection,WindDirectionDegrees,WindSpeedMPH,WindSpeedGustMPH,Humidity,HourlyPrecipIn,Conditions,Clouds,dailyrainin,SoftwareType,DateUTC
2013-02-15 00:00:00,62.7,61.8,30.03,East,101,0.0,0.0,97,0.06,,,0.77,Wunderground v.1.15,2013-02-15 05:00:00,
2013-02-15 00:01:00,62.7,61.8,30.03,NE,55,0.0,1.0,97,0.06,,,0.00,Wunderground v.1.15,2013-02-15 05:01:00,
2013-02-15 00:07:00,62.8,61.9,30.03,NE,47,0.0,1.0,97,0.35,,,0.04,Wunderground v.1.15,2013-02-15 05:07:00,
2013-02-15 01:02:00,63.0,62.1,30.01,North,8,0.0,1.0,97,0.00,,,0.13,Wunderground v.1.15,2013-02-15 06:02:00,
2013-02-15 01:08:00,62.9,62.0,30.01,NNE,32,0.0,1.0,97,0.00,,,0.14,Wunderground v.1.15,2013-02-15 06:08:00,
2013-02-15 01:13:00,63.0,62.1,30.01,NNE,31,0.0,0.0,97,0.00,,,0.14,Wunderground v.1.15,2013-02-15 06:13:00,
2013-02-15 01:19:00,63.1,62.2,30.01,NNW,347,0.0,0.0,97,0.06,,,0.15,Wunderground v.1.15,2013-02-15 06:19:00,
2013-02-15 01:24:00,63.1,62.2,30.01,NNE,20,0.0,0.0,97,0.29,,,0.18,Wunderground v.1.15,2013-02-15 06:24:00,
2013-02-15 01:29:00,63.2,62.3,30.01,NE,47,0.0,0.0,97,0.15,,,0.20,Wunderground v.1.15,2013-02-15 06:29:00,
2013-02-15 01:34:00,63.2,62.3,30.00,NNE,18,0.0,1.0,97,0.11,,,0.20,Wunderground v.1.15,2013-02-15 06:34:00,
2013-02-15 01:39:00,63.2,62.3,30.00,NE,37,1.0,1.0,97,0.09,,,0.21,Wunderground v.1.15,2013-02-15 06:39:00,
2013-02-15 01:45:00,63.3,62.4,29.99,East,79,0.0,0.0,97,0.11,,,0.22,Wunderground v.1.15,2013-02-15 06:45:00,
2013-02-15 01:50:00,63.3,62.4,29.99,NE,51,0.0,0.0,97,0.08,,,0.23,Wunderground v.1.15,2013-02-15 06:50:00,
2013-02-15 01:55:00,63.3,62.4,29.99,NE,35,0.0,0.0,97,0.08,,,0.23,Wunderground v.1.15,2013-02-15 06:55:00,
2013-02-15 02:00:00,63.4,62.8,29.99,North,11,0.0,0.0,98,0.07,,,0.24,Wunderground v.1.15,2013-02-15 07:00:00,
2013-02-15 02:05:00,63.4,62.8,29.99,ENE,72,0.0,1.0,98,0.13,,,0.25,Wunderground v.1.15,2013-02-15 07:05:00,
2013-02-15 02:10:00,63.4,62.5,29.99,NNE,29,0.0,0.0,97,0.21,,,0.27,Wunderground v.1.15,2013-02-15 07:10:00,
2013-02-15 02:15:00,63.4,62.8,29.99,NE,43,0.0,1.0,98,0.25,,,0.29,Wunderground v.1.15,2013-02-15 07:15:00,
2013-02-15 02:20:00,63.4,62.8,29.98,NE,51,0.0,1.0,98,0.38,,,0.33,Wunderground v.1.15,2013-02-15 07:20:00,
2013-02-15 02:25:00,63.4,62.8,29.98,NE,41,0.0,1.0,98,0.38,,,0.39,Wunderground v.1.15,2013-02-15 07:25:00,
2013-02-15 02:30:00,63.4,62.8,29.98,NE,47,0.0,1.0,98,0.24,,,0.41,Wunderground v.1.15,2013-02-15 07:30:00,
2013-02-15 02:35:00,63.4,62.8,29.98,NE,53,0.0,1.0,98,0.11,,,0.42,Wunderground v.1.15,2013-02-15 07:35:00,
2013-02-15 02:40:00,63.5,62.9,29.99,North,349,0.0,0.0,98,0.11,,,0.42,Wunderground v.1.15,2013-02-15 07:40:00,
2013-02-15 02:45:00,63.7,63.1,29.99,NNW,345,0.0,1.0,98,0.24,,,0.43,Wunderground v.1.15,2013-02-15 07:45:00,
2013-02-15 02:50:00,63.7,63.1,29.99,NNE,30,0.0,1.0,98,0.22,,,0.45,Wunderground v.1.15,2013-02-15 07:50:00,
2013-02-15 02:55:00,63.7,63.1,29.98,ENE,63,0.0,1.0,98,0.09,,,0.46,Wunderground v.1.15,2013-02-15 07:55:00,
2013-02-15 03:00:00,63.8,63.2,29.98,ENE,73,0.0,0.0,98,0.09,,,0.46,Wunderground v.1.15,2013-02-15 08:00:00,
2013-02-15 03:05:00,63.8,63.2,29.98,ENE,75,0.0,1.0,98,0.06,,,0.46,Wunderground v.1.15,2013-02-15 08:05:00,
2013-02-15 03:11:00,63.9,63.3,29.98,ENE,58,0.0,0.0,98,0.04,,,0.46,Wunderground v.1.15,2013-02-15 08:11:00,
2013-02-15 03:16:00,64.0,63.4,29.98,ENE,58,0.0,0.0,98,0.00,,,0.46,Wunderground v.1.15,2013-02-15 08:16:00,
2013-02-15 03:21:00,64.0,63.4,29.99,ENE,63,0.0,1.0,98,0.00,,,0.46,Wunderground v.1.15,2013-02-15 08:21:00,
2013-02-15 03:26:00,64.0,63.4,29.98,NE,44,0.0,1.0,98,0.00,,,0.46,Wunderground v.1.15,2013-02-15 08:26:00,
2013-02-15 03:31:00,64.1,63.5,29.98,NNE,29,0.0,1.0,98,0.00,,,0.46,Wunderground v.1.15,2013-02-15 08:31:00,
2013-02-15 03:36:00,64.1,63.5,29.98,NNE,25,0.0,1.0,98,0.00,,,0.46,Wunderground v.1.15,2013-02-15 08:36:00,
2013-02-15 03:41:00,64.1,63.5,29.99,NNE,13,0.0,0.0,98,0.00,,,0.47,Wunderground v.1.15,2013-02-15 08:41:00,
2013-02-15 03:46:00,64.2,63.6,29.98,North,354,0.0,3.0,98,0.33,,,0.49,Wunderground v.1.15,2013-02-15 08:46:00,
2013-02-15 03:51:00,64.2,63.6,29.98,North,9,0.0,1.0,98,0.27,,,0.51,Wunderground v.1.15,2013-02-15 08:51:00,
2013-02-15 03:56:00,64.2,63.6,29.97,East,81,0.0,1.0,98,0.21,,,0.52,Wunderground v.1.15,2013-02-15 08:56:00,
2013-02-15 04:01:00,64.2,63.6,29.97,East,83,0.0,0.0,98,0.15,,,0.54,Wunderground v.1.15,2013-02-15 09:01:00,
2013-02-15 04:06:00,64.3,63.7,29.97,NE,46,0.0,1.0,98,0.10,,,0.54,Wunderground v.1.15,2013-02-15 09:06:00,
2013-02-15 04:11:00,64.4,63.8,29.97,NNE,32,0.0,1.0,98,0.05,,,0.54,Wunderground v.1.15,2013-02-15 09:11:00,
2013-02-15 04:16:00,64.5,63.9,29.97,NNE,32,0.0,2.0,98,0.04,,,0.54,Wunderground v.1.15,2013-02-15 09:16:00,
2013-02-15 04:21:00,64.5,63.9,29.97,NNW,341,0.0,2.0,98,0.04,,,0.55,Wunderground v.1.15,2013-02-15 09:21:00,
2013-02-15 04:26:00,64.5,63.9,29.97,NNE,23,0.0,2.0,98,0.04,,,0.55,Wunderground v.1.15,2013-02-15 09:26:00,
2013-02-15 04:31:00,64.6,64.0,29.97,ENE,60,0.0,1.0,98,0.04,,,0.55,Wunderground v.1.15,2013-02-15 09:31:00,
2013-02-15 04:36:00,64.7,64.1,29.97,NE,51,0.0,2.0,98,0.00,,,0.55,Wunderground v.1.15,2013-02-15 09:36:00,
2013-02-15 04:41:00,64.7,64.1,29.97,ENE,64,0.0,1.0,98,0.00,,,0.55,Wunderground v.1.15,2013-02-15 09:41:00,
2013-02-15 04:46:00,64.8,64.2,29.97,NE,48,1.0,2.0,98,0.00,,,0.55,Wunderground v.1.15,2013-02-15 09:46:00,
2013-02-15 04:51:00,64.9,64.3,29.97,ENE,68,0.0,1.0,98,0.00,,,0.55,Wunderground v.1.15,2013-02-15 09:51:00,
2013-02-15 04:56:00,64.9,64.3,29.97,ENE,71,0.0,1.0,98,0.00,,,0.55,Wunderground v.1.15,2013-02-15 09:56:00,
2013-02-15 05:01:00,65.0,64.4,29.98,ENE,71,0.0,0.0,98,0.00,,,0.55,Wunderground v.1.15,2013-02-15 10:01:00,
2013-02-15 05:06:00,65.1,64.5,29.98,ENE,70,0.0,1.0,98,0.00,,,0.55,Wunderground v.1.15,2013-02-15 10:06:00,
2013-02-15 05:11:00,65.2,64.6,29.98,NW,316,0.0,0.0,98,0.00,,,0.55,Wunderground v.1.15,2013-02-15 10:11:00,
2013-02-15 05:16:00,65.3,64.7,29.98,NNW,347,1.0,2.0,98,0.00,,,0.55,Wunderground v.1.15,2013-02-15 10:16:00,
2013-02-15 05:21:00,65.4,64.8,29.99,ENE,71,0.0,2.0,98,0.00,,,0.55,Wunderground v.1.15,2013-02-15 10:21:00,
2013-02-15 05:26:00,65.4,64.8,29.99,NNE,16,0.0,2.0,98,0.00,,,0.56,Wunderground v.1.15,2013-02-15 10:26:00,
2013-02-15 05:31:00,65.4,64.8,29.99,North,1,0.0,0.0,98,0.09,,,0.57,Wunderground v.1.15,2013-02-15 10:31:00,
2013-02-15 05:36:00,65.5,64.9,29.99,NE,36,1.0,2.0,98,0.09,,,0.57,Wunderground v.1.15,2013-02-15 10:36:00,
2013-02-15 05:41:00,65.6,65.0,29.99,ENE,66,2.0,6.0,98,0.07,,,0.58,Wunderground v.1.15,2013-02-15 10:41:00,
2013-02-15 05:46:00,65.6,65.0,29.99,East,79,0.0,6.0,98,0.07,,,0.58,Wunderground v.1.15,2013-02-15 10:46:00,
2013-02-15 05:51:00,65.6,65.0,29.99,NE,55,0.0,1.0,98,0.07,,,0.59,Wunderground v.1.15,2013-02-15 10:51:00,
2013-02-15 05:56:00,65.7,65.1,29.99,ENE,61,0.0,2.0,98,0.07,,,0.59,Wunderground v.1.15,2013-02-15 10:56:00,
2013-02-15 06:02:00,65.8,65.2,29.99,NE,40,0.0,1.0,98,0.04,,,0.59,Wunderground v.1.15,2013-02-15 11:02:00,
2013-02-15 06:07:00,65.9,65.3,29.99,East,87,0.0,3.0,98,0.00,,,0.59,Wunderground v.1.15,2013-02-15 11:07:00,
2013-02-15 06:12:00,66.1,65.5,29.99,East,91,0.0,2.0,98,0.00,,,0.59,Wunderground v.1.15,2013-02-15 11:12:00,
2013-02-15 06:17:00,66.1,65.5,29.98,NE,54,1.0,5.0,98,0.00,,,0.59,Wunderground v.1.15,2013-02-15 11:17:00,
2013-02-15 06:22:00,66.2,65.6,29.99,NE,46,2.0,4.0,98,0.00,,,0.59,Wunderground v.1.15,2013-02-15 11:22:00,
2013-02-15 06:27:00,66.3,65.7,29.99,ENE,65,0.0,5.0,98,0.00,,,0.59,Wunderground v.1.15,2013-02-15 11:27:00,
2013-02-15 06:32:00,66.4,65.8,29.99,ENE,65,0.0,3.0,98,0.00,,,0.59,Wunderground v.1.15,2013-02-15 11:32:00,
2013-02-15 06:37:00,66.5,65.9,29.99,East,79,0.0,4.0,98,0.00,,,0.59,Wunderground v.1.15,2013-02-15 11:37:00,
2013-02-15 06:42:00,66.6,66.0,29.99,East,82,0.0,2.0,98,0.00,,,0.59,Wunderground v.1.15,2013-02-15 11:42:00,
2013-02-15 06:47:00,66.7,66.1,30.00,NE,54,0.0,2.0,98,0.00,,,0.59,Wunderground v.1.15,2013-02-15 11:47:00,
2013-02-15 06:52:00,66.7,66.1,30.00,NE,51,0.0,2.0,98,0.00,,,0.59,Wunderground v.1.15,2013-02-15 11:52:00,
2013-02-15 06:57:00,66.8,66.2,30.00,ENE,68,1.0,2.0,98,0.00,,,0.59,Wunderground v.1.15,2013-02-15 11:57:00,
2013-02-15 07:02:00,66.8,66.2,30.01,East,89,0.0,0.0,98,0.00,,,0.59,Wunderground v.1.15,2013-02-15 12:02:00,
2013-02-15 07:07:00,66.9,66.3,30.01,East,89,0.0,1.0,98,0.00,,,0.59,Wunderground v.1.15,2013-02-15 12:07:00,
2013-02-15 07:12:00,66.9,66.3,30.01,NE,53,0.0,2.0,98,0.00,,,0.59,Wunderground v.1.15,2013-02-15 12:12:00,
2013-02-15 07:17:00,66.9,66.3,30.01,NE,56,0.0,2.0,98,0.00,,,0.59,Wunderground v.1.15,2013-02-15 12:17:00,
2013-02-15 07:22:00,66.9,66.3,30.01,ENE,65,0.0,2.0,98,0.00,,,0.59,Wunderground v.1.15,2013-02-15 12:22:00,
2013-02-15 07:27:00,66.9,66.3,30.01,NE,56,1.0,4.0,98,0.00,,,0.59,Wunderground v.1.15,2013-02-15 12:27:00,
2013-02-15 07:32:00,67.0,66.4,30.01,NE,49,0.0,2.0,98,0.00,,,0.59,Wunderground v.1.15,2013-02-15 12:32:00,
2013-02-15 07:37:00,67.1,66.5,30.01,East,101,0.0,2.0,98,0.00,,,0.59,Wunderground v.1.15,2013-02-15 12:37:00,
2013-02-15 07:42:00,67.1,66.5,30.02,NE,53,0.0,4.0,98,0.00,,,0.59,Wunderground v.1.15,2013-02-15 12:42:00,
2013-02-15 07:47:00,67.2,66.6,30.02,NNE,30,0.0,4.0,98,0.00,,,0.59,Wunderground v.1.15,2013-02-15 12:47:00,
2013-02-15 07:52:00,67.3,66.7,30.02,NNE,30,1.0,4.0,98,0.00,,,0.59,Wunderground v.1.15,2013-02-15 12:52:00,
2013-02-15 07:57:00,67.3,66.7,30.02,East,94,1.0,5.0,98,0.00,,,0.59,Wunderground v.1.15,2013-02-15 12:57:00,
2013-02-15 08:02:00,67.3,66.7,30.02,North,3,3.0,4.0,98,0.00,,,0.59,Wunderground v.1.15,2013-02-15 13:02:00,
2013-02-15 08:07:00,67.4,66.8,30.02,NE,36,1.0,4.0,98,0.00,,,0.59,Wunderground v.1.15,2013-02-15 13:07:00,
2013-02-15 08:12:00,67.5,66.9,30.02,East,85,0.0,3.0,98,0.00,,,0.59,Wunderground v.1.15,2013-02-15 13:12:00,
2013-02-15 08:17:00,67.5,66.9,30.02,NE,46,2.0,4.0,98,0.00,,,0.59,Wunderground v.1.15,2013-02-15 13:17:00,
2013-02-15 08:22:00,67.5,66.9,30.02,East,85,0.0,2.0,98,0.00,,,0.59,Wunderground v.1.15,2013-02-15 13:22:00,
2013-02-15 08:27:00,67.6,67.0,30.03,ENE,71,0.0,4.0,98,0.00,,,0.59,Wunderground v.1.15,2013-02-15 13:27:00,
2013-02-15 08:32:00,67.7,67.1,30.03,East,80,0.0,3.0,98,0.00,,,0.59,Wunderground v.1.15,2013-02-15 13:32:00,
2013-02-15 08:37:00,67.7,67.1,30.03,ESE,107,0.0,4.0,98,0.00,,,0.59,Wunderground v.1.15,2013-02-15 13:37:00,
2013-02-15 08:42:00,67.8,67.2,30.03,East,83,0.0,1.0,98,0.00,,,0.59,Wunderground v.1.15,2013-02-15 13:42:00,
2013-02-15 08:47:00,67.8,67.2,30.03,East,83,0.0,3.0,98,0.00,,,0.59,Wunderground v.1.15,2013-02-15 13:47:00,
2013-02-15 08:52:00,67.9,67.3,30.03,East,89,0.0,4.0,98,0.00,,,0.59,Wunderground v.1.15,2013-02-15 13:52:00,
2013-02-15 08:57:00,68.1,67.5,30.03,East,87,0.0,4.0,98,0.00,,,0.59,Wunderground v.1.15,2013-02-15 13:57:00,
2013-02-15 09:02:00,68.2,67.6,30.03,ENE,72,0.0,3.0,98,0.00,,,0.59,Wunderground v.1.15,2013-02-15 14:02:00,
2013-02-15 09:07:00,68.3,67.7,30.03,East,86,2.0,3.0,98,0.00,,,0.59,Wunderground v.1.15,2013-02-15 14:07:00,
2013-02-15 09:12:00,68.5,67.6,30.03,East,82,0.0,4.0,97,0.00,,,0.59,Wunderground v.1.15,2013-02-15 14:12:00,
2013-02-15 09:17:00,68.7,67.8,30.02,East,86,3.0,4.0,97,0.00,,,0.59,Wunderground v.1.15,2013-02-15 14:17:00,
2013-02-15 09:22:00,68.9,68.0,30.02,NE,52,0.0,4.0,97,0.00,,,0.59,Wunderground v.1.15,2013-02-15 14:22:00,
2013-02-15 09:27:00,69.1,68.2,30.03,ENE,74,1.0,5.0,97,0.00,,,0.59,Wunderground v.1.15,2013-02-15 14:27:00,
2013-02-15 09:32:00,69.4,68.2,30.03,East,89,0.0,1.0,96,0.00,,,0.59,Wunderground v.1.15,2013-02-15 14:32:00,
2013-02-15 09:37:00,69.5,68.3,30.03,ESE,108,0.0,2.0,96,0.00,,,0.59,Wunderground v.1.15,2013-02-15 14:37:00,
2013-02-15 09:42:00,69.7,68.5,30.03,ESE,121,0.0,5.0,96,0.00,,,0.59,Wunderground v.1.15,2013-02-15 14:42:00,
2013-02-15 09:47:00,69.9,68.4,30.02,East,101,0.0,6.0,95,0.00,,,0.59,Wunderground v.1.15,2013-02-15 14:47:00,
2013-02-15 09:52:00,70.0,68.2,30.02,East,93,2.0,5.0,94,0.00,,,0.59,Wunderground v.1.15,2013-02-15 14:52:00,
2013-02-15 09:57:00,70.2,67.8,30.02,East,94,1.0,7.0,92,0.00,,,0.59,Wunderground v.1.15,2013-02-15 14:57:00,
2013-02-15 10:02:00,70.6,68.2,30.02,ENE,72,2.0,5.0,92,0.00,,,0.59,Wunderground v.1.15,2013-02-15 15:02:00,
2013-02-15 10:07:00,70.8,68.0,30.02,NNE,20,0.0,6.0,91,0.00,,,0.59,Wunderground v.1.15,2013-02-15 15:07:00,
2013-02-15 10:12:00,71.1,68.3,30.02,ESE,105,0.0,4.0,91,0.00,,,0.59,Wunderground v.1.15,2013-02-15 15:12:00,
2013-02-15 10:17:00,71.3,68.5,30.02,East,89,1.0,4.0,91,0.00,,,0.59,Wunderground v.1.15,2013-02-15 15:17:00,
2013-02-15 10:22:00,71.4,68.3,30.02,ENE,58,3.0,5.0,90,0.00,,,0.59,Wunderground v.1.15,2013-02-15 15:22:00,
2013-02-15 10:28:00,71.4,68.0,30.02,NE,44,0.0,5.0,89,0.00,,,0.59,Wunderground v.1.15,2013-02-15 15:28:00,
2013-02-15 10:33:00,71.4,67.7,30.02,East,82,1.0,7.0,88,0.00,,,0.59,Wunderground v.1.15,2013-02-15 15:33:00,
2013-02-15 10:38:00,71.4,68.0,30.03,NE,44,2.0,7.0,89,0.00,,,0.59,Wunderground v.1.15,2013-02-15 15:38:00,
2013-02-15 10:43:00,71.6,68.2,30.03,East,79,1.0,6.0,89,0.00,,,0.59,Wunderground v.1.15,2013-02-15 15:43:00,
2013-02-15 10:48:00,71.7,68.3,30.03,East,85,3.0,6.0,89,0.00,,,0.59,Wunderground v.1.15,2013-02-15 15:48:00,
2013-02-15 10:53:00,71.7,68.3,30.04,East,98,3.0,3.0,89,0.00,,,0.59,Wunderground v.1.15,2013-02-15 15:53:00,
2013-02-15 10:58:00,71.7,68.3,30.04,NNE,30,0.0,3.0,89,0.00,,,0.59,Wunderground v.1.15,2013-02-15 15:58:00,
2013-02-15 11:03:00,71.6,68.2,30.03,East,79,1.0,4.0,89,0.00,,,0.60,Wunderground v.1.15,2013-02-15 16:03:00,
2013-02-15 11:08:00,71.6,68.8,30.03,East,89,0.0,5.0,91,0.00,,,0.60,Wunderground v.1.15,2013-02-15 16:08:00,
2013-02-15 11:14:00,71.9,69.4,30.03,East,85,1.0,4.0,92,0.00,,,0.60,Wunderground v.1.15,2013-02-15 16:14:00,
2013-02-15 11:19:00,72.3,69.8,30.03,ENE,75,1.0,5.0,92,0.00,,,0.60,Wunderground v.1.15,2013-02-15 16:19:00,
2013-02-15 11:24:00,72.8,70.3,30.03,NE,49,0.0,4.0,92,0.00,,,0.60,Wunderground v.1.15,2013-02-15 16:24:00,
2013-02-15 11:29:00,72.7,69.6,30.03,NE,39,1.0,4.0,90,0.00,,,0.60,Wunderground v.1.15,2013-02-15 16:29:00,
2013-02-15 11:34:00,72.6,69.2,30.03,NE,46,2.0,5.0,89,0.00,,,0.60,Wunderground v.1.15,2013-02-15 16:34:00,
2013-02-15 11:39:00,72.7,69.6,30.03,East,79,1.0,5.0,90,0.00,,,0.60,Wunderground v.1.15,2013-02-15 16:39:00,
2013-02-15 11:44:00,72.9,69.5,30.03,ENE,72,2.0,5.0,89,0.00,,,0.60,Wunderground v.1.15,2013-02-15 16:44:00,
2013-02-15 11:49:00,72.9,69.1,30.03,NE,51,0.0,5.0,88,0.00,,,0.60,Wunderground v.1.15,2013-02-15 16:49:00,
2013-02-15 11:54:00,72.9,69.1,30.02,ENE,68,0.0,3.0,88,0.00,,,0.60,Wunderground v.1.15,2013-02-15 16:54:00,
2013-02-15 11:59:00,72.9,68.8,30.02,East,86,0.0,6.0,87,0.00,,,0.60,Wunderground v.1.15,2013-02-15 16:59:00,
2013-02-15 12:04:00,72.8,68.7,30.02,NNE,32,1.0,2.0,87,0.00,,,0.60,Wunderground v.1.15,2013-02-15 17:04:00,
2013-02-15 12:09:00,72.7,68.3,30.02,NE,44,0.0,4.0,86,0.00,,,0.60,Wunderground v.1.15,2013-02-15 17:09:00,
2013-02-15 12:14:00,72.7,68.6,30.02,North,8,2.0,4.0,87,0.00,,,0.60,Wunderground v.1.15,2013-02-15 17:14:00,
2013-02-15 12:19:00,72.5,68.7,30.01,NE,41,1.0,4.0,88,0.00,,,0.61,Wunderground v.1.15,2013-02-15 17:19:00,
2013-02-15 12:25:00,72.0,68.6,30.01,NE,51,0.0,4.0,89,0.06,,,0.62,Wunderground v.1.15,2013-02-15 17:25:00,
2013-02-15 12:30:00,71.4,68.3,30.01,NE,56,3.0,3.0,90,0.06,,,0.62,Wunderground v.1.15,2013-02-15 17:30:00,
2013-02-15 12:35:00,71.1,68.3,30.01,NE,36,1.0,3.0,91,0.06,,,0.63,Wunderground v.1.15,2013-02-15 17:35:00,
2013-02-15 12:40:00,70.8,68.4,30.01,NE,55,0.0,0.0,92,0.06,,,0.63,Wunderground v.1.15,2013-02-15 17:40:00,
2013-02-15 12:45:00,70.7,68.6,30.01,NNE,32,1.0,2.0,93,0.05,,,0.63,Wunderground v.1.15,2013-02-15 17:45:00,
2013-02-15 12:50:00,70.5,68.4,30.01,North,8,1.0,1.0,93,0.04,,,0.64,Wunderground v.1.15,2013-02-15 17:50:00,
2013-02-15 12:55:00,70.3,68.2,30.01,NNE,19,0.0,3.0,93,0.29,,,0.66,Wunderground v.1.15,2013-02-15 17:55:00,
2013-02-15 13:00:00,70.1,68.3,30.01,NNE,32,0.0,1.0,94,0.19,,,0.68,Wunderground v.1.15,2013-02-15 18:00:00,
2013-02-15 13:05:00,69.9,68.1,30.01,NW,309,2.0,4.0,94,0.21,,,0.70,Wunderground v.1.15,2013-02-15 18:05:00,
2013-02-15 13:10:00,69.8,68.3,30.01,NNW,333,0.0,2.0,95,0.15,,,0.71,Wunderground v.1.15,2013-02-15 18:10:00,
2013-02-15 13:15:00,69.7,68.2,30.00,NE,51,0.0,4.0,95,0.11,,,0.72,Wunderground v.1.15,2013-02-15 18:15:00,
2013-02-15 13:20:00,69.5,68.0,30.00,NNE,25,1.0,2.0,95,0.09,,,0.72,Wunderground v.1.15,2013-02-15 18:20:00,
2013-02-15 13:25:00,69.5,68.0,30.00,NE,55,0.0,2.0,95,0.08,,,0.73,Wunderground v.1.15,2013-02-15 18:25:00,
2013-02-15 13:30:00,69.3,67.8,30.00,WNW,303,2.0,4.0,95,0.13,,,0.74,Wunderground v.1.15,2013-02-15 18:30:00,
2013-02-15 13:35:00,69.1,67.6,30.00,North,1,4.0,5.0,95,0.06,,,0.74,Wunderground v.1.15,2013-02-15 18:35:00,
2013-02-15 13:40:00,69.0,67.5,30.00,NW,322,6.0,6.0,95,0.05,,,0.75,Wunderground v.1.15,2013-02-15 18:40:00,
2013-02-15 13:45:00,68.4,66.6,30.00,NNE,15,0.0,7.0,94,0.05,,,0.75,Wunderground v.1.15,2013-02-15 18:45:00,
2013-02-15 13:50:00,68.2,66.4,29.99,NE,52,2.0,3.0,94,0.05,,,0.75,Wunderground v.1.15,2013-02-15 18:50:00,
2013-02-15 13:55:00,68.2,66.7,29.99,NNW,346,1.0,4.0,95,0.00,,,0.75,Wunderground v.1.15,2013-02-15 18:55:00,
2013-02-15 14:00:00,67.9,66.4,29.99,NE,37,2.0,2.0,95,0.00,,,0.75,Wunderground v.1.15,2013-02-15 19:00:00,
2013-02-15 14:05:00,67.5,65.7,29.99,NE,48,0.0,3.0,94,0.00,,,0.76,Wunderground v.1.15,2013-02-15 19:05:00,
2013-02-15 14:10:00,67.4,65.9,29.99,NE,54,0.0,1.0,95,0.09,,,0.77,Wunderground v.1.15,2013-02-15 19:10:00,
2013-02-15 14:15:00,67.4,65.9,29.99,NNW,347,2.0,4.0,95,0.12,,,0.78,Wunderground v.1.15,2013-02-15 19:15:00,
2013-02-15 14:21:00,67.4,65.9,29.99,NNW,347,0.0,1.0,95,0.17,,,0.79,Wunderground v.1.15,2013-02-15 19:21:00,
2013-02-15 14:26:00,67.5,66.0,29.99,NE,43,1.0,4.0,95,0.19,,,0.81,Wunderground v.1.15,2013-02-15 19:26:00,
2013-02-15 14:31:00,67.4,66.2,29.99,North,357,1.0,2.0,96,0.12,,,0.82,Wunderground v.1.15,2013-02-15 19:31:00,
2013-02-15 14:35:00,67.3,66.1,29.99,NNE,30,3.0,4.0,96,0.82,,,0.85,Wunderground v.1.15,2013-02-15 19:35:00,
2013-02-15 14:40:00,67.2,66.0,29.99,ENE,66,0.0,4.0,96,0.25,,,0.87,Wunderground v.1.15,2013-02-15 19:40:00,
2013-02-15 14:45:00,67.3,66.1,29.99,NNE,29,0.0,4.0,96,0.16,,,0.89,Wunderground v.1.15,2013-02-15 19:45:00,
2013-02-15 14:50:00,67.3,66.1,29.99,NE,37,0.0,3.0,96,0.11,,,0.90,Wunderground v.1.15,2013-02-15 19:50:00,
2013-02-15 14:55:00,67.3,66.1,29.99,NE,41,1.0,3.0,96,0.11,,,0.90,Wunderground v.1.15,2013-02-15 19:55:00,
2013-02-15 15:00:00,67.1,65.9,29.99,NW,307,0.0,1.0,96,0.11,,,0.91,Wunderground v.1.15,2013-02-15 20:00:00,
2013-02-15 15:05:00,67.2,66.0,29.98,NE,37,3.0,3.0,96,0.11,,,0.92,Wunderground v.1.15,2013-02-15 20:05:00,
2013-02-15 15:11:00,67.3,66.1,29.98,NE,42,1.0,1.0,96,0.12,,,0.93,Wunderground v.1.15,2013-02-15 20:11:00,
2013-02-15 15:16:00,67.2,66.0,29.98,ENE,69,1.0,2.0,96,0.06,,,0.93,Wunderground v.1.15,2013-02-15 20:16:00,
2013-02-15 15:21:00,67.1,65.9,29.98,NNE,29,0.0,1.0,96,0.04,,,0.93,Wunderground v.1.15,2013-02-15 20:21:00,
2013-02-15 15:26:00,67.0,65.8,29.98,NE,55,0.0,3.0,96,0.00,,,0.93,Wunderground v.1.15,2013-02-15 20:26:00,
2013-02-15 15:31:00,67.0,65.8,29.97,ENE,57,2.0,2.0,96,0.00,,,0.93,Wunderground v.1.15,2013-02-15 20:31:00,
2013-02-15 15:36:00,66.9,65.7,29.97,NNE,30,0.0,5.0,96,0.00,,,0.93,Wunderground v.1.15,2013-02-15 20:36:00,
2013-02-15 15:41:00,66.8,65.6,29.98,North,9,0.0,1.0,96,0.00,,,0.93,Wunderground v.1.15,2013-02-15 20:41:00,
2013-02-15 15:46:00,66.7,65.5,29.98,NE,44,0.0,2.0,96,0.00,,,0.93,Wunderground v.1.15,2013-02-15 20:46:00,
2013-02-15 15:51:00,66.7,65.5,29.98,NE,37,4.0,5.0,96,0.00,,,0.94,Wunderground v.1.15,2013-02-15 20:51:00,
2013-02-15 15:56:00,66.7,65.5,29.98,NE,39,1.0,5.0,96,0.00,,,0.94,Wunderground v.1.15,2013-02-15 20:56:00,
2013-02-15 16:01:00,66.7,65.5,29.98,NE,37,0.0,1.0,96,0.04,,,0.95,Wunderground v.1.15,2013-02-15 21:01:00,
2013-02-15 16:06:00,66.8,65.6,29.98,NNE,16,1.0,4.0,96,0.04,,,0.95,Wunderground v.1.15,2013-02-15 21:06:00,
2013-02-15 16:11:00,66.7,65.5,29.98,ENE,63,0.0,2.0,96,0.11,,,0.96,Wunderground v.1.15,2013-02-15 21:11:00,
2013-02-15 16:16:00,66.7,65.5,29.98,North,350,0.0,2.0,96,0.06,,,0.96,Wunderground v.1.15,2013-02-15 21:16:00,
2013-02-15 16:21:00,66.6,65.4,29.98,NE,37,0.0,4.0,96,0.04,,,0.96,Wunderground v.1.15,2013-02-15 21:21:00,
2013-02-15 16:26:00,66.5,65.3,29.98,NNE,16,2.0,4.0,96,0.00,,,0.96,Wunderground v.1.15,2013-02-15 21:26:00,
2013-02-15 16:31:00,66.5,65.3,29.98,NNE,21,0.0,2.0,96,0.00,,,0.96,Wunderground v.1.15,2013-02-15 21:31:00,
2013-02-15 16:36:00,66.5,65.3,29.98,NNE,19,1.0,3.0,96,0.00,,,0.96,Wunderground v.1.15,2013-02-15 21:36:00,
2013-02-15 16:41:00,66.5,65.3,29.98,North,353,0.0,0.0,96,0.00,,,0.97,Wunderground v.1.15,2013-02-15 21:41:00,
2013-02-15 16:46:00,66.5,65.3,29.99,NNW,347,1.0,1.0,96,0.00,,,0.97,Wunderground v.1.15,2013-02-15 21:46:00,
2013-02-15 16:51:00,66.5,65.3,29.99,NNE,22,0.0,1.0,96,0.00,,,0.97,Wunderground v.1.15,2013-02-15 21:51:00,
2013-02-15 16:56:00,66.6,65.7,29.99,NNE,17,0.0,1.0,97,0.04,,,0.98,Wunderground v.1.15,2013-02-15 21:56:00,
2013-02-15 17:01:00,66.7,65.8,29.98,NNE,32,0.0,0.0,97,0.04,,,0.98,Wunderground v.1.15,2013-02-15 22:01:00,
2013-02-15 17:06:00,66.8,65.9,29.98,NNE,32,0.0,1.0,97,0.06,,,0.99,Wunderground v.1.15,2013-02-15 22:06:00,
2013-02-15 17:11:00,66.9,66.0,29.98,NE,46,0.0,0.0,97,0.06,,,0.99,Wunderground v.1.15,2013-02-15 22:11:00,
2013-02-15 17:16:00,66.9,66.0,29.97,NNE,27,1.0,2.0,97,0.05,,,0.99,Wunderground v.1.15,2013-02-15 22:16:00,
2013-02-15 17:21:00,66.8,65.6,29.97,NE,34,0.0,1.0,96,0.00,,,0.99,Wunderground v.1.15,2013-02-15 22:21:00,
2013-02-15 17:26:00,66.8,65.9,29.97,NNE,27,0.0,2.0,97,0.00,,,0.99,Wunderground v.1.15,2013-02-15 22:26:00,
2013-02-15 17:31:00,66.8,65.9,29.97,NE,48,0.0,0.0,97,0.00,,,0.99,Wunderground v.1.15,2013-02-15 22:31:00,
2013-02-15 17:36:00,66.8,65.9,29.97,NE,34,0.0,1.0,97,0.00,,,0.99,Wunderground v.1.15,2013-02-15 22:36:00,
2013-02-15 17:41:00,66.7,65.8,29.97,NE,39,0.0,1.0,97,0.00,,,0.99,Wunderground v.1.15,2013-02-15 22:41:00,
2013-02-15 17:46:00,66.6,65.4,29.97,ENE,59,0.0,3.0,96,0.00,,,0.99,Wunderground v.1.15,2013-02-15 22:46:00,
2013-02-15 17:51:00,66.5,65.6,29.97,NE,36,0.0,2.0,97,0.00,,,0.99,Wunderground v.1.15,2013-02-15 22:51:00,
2013-02-15 17:56:00,66.4,65.5,29.97,NNE,32,0.0,4.0,97,0.00,,,0.99,Wunderground v.1.15,2013-02-15 22:56:00,
2013-02-15 18:01:00,66.4,65.5,29.97,North,353,0.0,1.0,97,0.00,,,0.99,Wunderground v.1.15,2013-02-15 23:01:00,
2013-02-15 18:06:00,66.4,65.5,29.98,NNE,23,0.0,1.0,97,0.00,,,0.99,Wunderground v.1.15,2013-02-15 23:06:00,
2013-02-15 18:11:00,66.4,65.5,29.98,NE,44,0.0,1.0,97,0.00,,,0.99,Wunderground v.1.15,2013-02-15 23:11:00,
2013-02-15 18:16:00,66.4,65.5,29.98,North,8,1.0,2.0,97,0.00,,,0.99,Wunderground v.1.15,2013-02-15 23:16:00,
2013-02-15 18:21:00,66.3,65.4,29.98,NE,51,0.0,2.0,97,0.00,,,1.01,Wunderground v.1.15,2013-02-15 23:21:00,
2013-02-15 18:26:00,66.2,65.3,29.97,ENE,60,0.0,2.0,97,0.00,,,1.01,Wunderground v.1.15,2013-02-15 23:26:00,
2013-02-15 18:31:00,66.1,65.2,29.97,NE,39,0.0,0.0,97,0.00,,,1.01,Wunderground v.1.15,2013-02-15 23:31:00,
2013-02-15 18:36:00,65.9,64.7,29.97,ENE,57,0.0,2.0,96,0.00,,,1.01,Wunderground v.1.15,2013-02-15 23:36:00,
2013-02-15 18:41:00,65.7,64.5,29.97,East,89,0.0,1.0,96,0.00,,,1.01,Wunderground v.1.15,2013-02-15 23:41:00,
2013-02-15 18:46:00,65.6,64.4,29.97,ENE,70,1.0,2.0,96,0.00,,,1.01,Wunderground v.1.15,2013-02-15 23:46:00,
2013-02-15 18:51:00,65.6,64.4,29.97,ENE,59,1.0,2.0,96,0.00,,,1.01,Wunderground v.1.15,2013-02-15 23:51:00,
2013-02-15 18:56:00,65.6,64.7,29.97,East,82,1.0,2.0,97,0.00,,,1.01,Wunderground v.1.15,2013-02-15 23:56:00,
2013-02-15 19:01:00,65.5,64.3,29.97,ESE,108,1.0,1.0,96,0.00,,,1.01,Wunderground v.1.15,2013-02-16 00:01:00,
2013-02-15 19:06:00,65.5,64.3,29.97,East,87,0.0,2.0,96,0.00,,,1.01,Wunderground v.1.15,2013-02-16 00:06:00,
2013-02-15 19:11:00,65.4,64.2,29.97,ENE,70,2.0,2.0,96,0.00,,,1.01,Wunderground v.1.15,2013-02-16 00:11:00,
2013-02-15 19:16:00,65.2,64.0,29.97,East,79,0.0,4.0,96,0.00,,,1.02,Wunderground v.1.15,2013-02-16 00:16:00,
2013-02-15 19:21:00,65.2,64.0,29.97,East,98,0.0,2.0,96,0.00,,,1.02,Wunderground v.1.15,2013-02-16 00:21:00,
2013-02-15 19:26:00,65.2,64.3,29.97,East,100,0.0,2.0,97,0.00,,,1.02,Wunderground v.1.15,2013-02-16 00:26:00,
2013-02-15 19:31:00,65.3,64.4,29.98,East,100,0.0,0.0,97,0.00,,,1.02,Wunderground v.1.15,2013-02-16 00:31:00,
2013-02-15 19:36:00,65.3,64.4,29.98,East,100,0.0,0.0,97,0.00,,,1.02,Wunderground v.1.15,2013-02-16 00:36:00,
2013-02-15 19:42:00,65.4,64.5,29.98,East,94,0.0,0.0,97,0.00,,,1.03,Wunderground v.1.15,2013-02-16 00:42:00,
2013-02-15 19:47:00,65.5,64.6,29.98,East,98,0.0,1.0,97,0.00,,,1.03,Wunderground v.1.15,2013-02-16 00:47:00,
2013-02-15 19:52:00,65.5,64.6,29.98,ESE,103,0.0,1.0,97,0.00,,,1.03,Wunderground v.1.15,2013-02-16 00:52:00,
2013-02-15 19:57:00,65.5,64.6,29.98,ESE,115,0.0,2.0,97,0.05,,,1.04,Wunderground v.1.15,2013-02-16 00:57:00,
2013-02-15 20:02:00,65.4,64.5,29.99,East,94,2.0,2.0,97,0.05,,,1.04,Wunderground v.1.15,2013-02-16 01:02:00,
2013-02-15 20:07:00,65.3,64.4,29.99,ESE,108,0.0,2.0,97,0.06,,,1.05,Wunderground v.1.15,2013-02-16 01:07:00,
2013-02-15 20:12:00,65.4,64.5,29.99,ESE,107,0.0,0.0,97,0.06,,,1.05,Wunderground v.1.15,2013-02-16 01:12:00,
2013-02-15 20:17:00,65.4,64.5,29.99,ESE,108,0.0,0.0,97,0.06,,,1.06,Wunderground v.1.15,2013-02-16 01:17:00,
2013-02-15 20:22:00,65.4,64.5,29.99,ESE,107,0.0,0.0,97,0.06,,,1.06,Wunderground v.1.15,2013-02-16 01:22:00,
2013-02-15 20:27:00,65.4,64.5,29.99,East,96,0.0,1.0,97,0.05,,,1.06,Wunderground v.1.15,2013-02-16 01:27:00,
2013-02-15 20:32:00,65.5,64.6,29.98,ESE,110,0.0,1.0,97,0.00,,,1.06,Wunderground v.1.15,2013-02-16 01:32:00,
2013-02-15 20:37:00,65.6,64.7,29.98,ESE,104,0.0,1.0,97,0.00,,,1.07,Wunderground v.1.15,2013-02-16 01:37:00,
2013-02-15 20:42:00,65.5,64.6,29.98,ESE,104,0.0,0.0,97,0.00,,,1.07,Wunderground v.1.15,2013-02-16 01:42:00,
2013-02-15 20:47:00,65.5,64.6,29.98,ESE,107,0.0,0.0,97,0.00,,,1.07,Wunderground v.1.15,2013-02-16 01:47:00,
2013-02-15 20:52:00,65.5,64.6,29.98,ESE,122,0.0,1.0,97,0.00,,,1.07,Wunderground v.1.15,2013-02-16 01:52:00,
2013-02-15 20:57:00,65.5,64.6,29.98,ESE,113,1.0,1.0,97,0.00,,,1.07,Wunderground v.1.15,2013-02-16 01:57:00,
2013-02-15 21:02:00,65.5,64.6,29.98,SE,134,0.0,1.0,97,0.00,,,1.07,Wunderground v.1.15,2013-02-16 02:02:00,
2013-02-15 21:07:00,65.5,64.6,29.98,SE,134,0.0,1.0,97,0.00,,,1.07,Wunderground v.1.15,2013-02-16 02:07:00,
2013-02-15 21:12:00,65.4,64.5,29.98,SE,134,0.0,0.0,97,0.00,,,1.07,Wunderground v.1.15,2013-02-16 02:12:00,
2013-02-15 21:17:00,65.4,64.5,29.98,SE,134,0.0,0.0,97,0.00,,,1.07,Wunderground v.1.15,2013-02-16 02:17:00,
2013-02-15 21:22:00,65.4,64.5,29.98,SE,134,0.0,0.0,97,0.00,,,1.07,Wunderground v.1.15,2013-02-16 02:22:00,
2013-02-15 21:27:00,65.3,64.4,29.98,SE,134,0.0,0.0,97,0.00,,,1.07,Wunderground v.1.15,2013-02-16 02:27:00,
2013-02-15 21:32:00,65.3,64.4,29.98,SE,134,0.0,0.0,97,0.00,,,1.07,Wunderground v.1.15,2013-02-16 02:32:00,
2013-02-15 21:37:00,65.4,64.5,29.98,SE,134,0.0,1.0,97,0.00,,,1.07,Wunderground v.1.15,2013-02-16 02:37:00,
2013-02-15 21:42:00,65.5,64.6,29.98,SE,134,0.0,0.0,97,0.00,,,1.07,Wunderground v.1.15,2013-02-16 02:42:00,
2013-02-15 21:47:00,65.5,64.6,29.98,SE,134,0.0,0.0,97,0.00,,,1.07,Wunderground v.1.15,2013-02-16 02:47:00,
2013-02-15 21:53:00,65.6,64.7,29.98,SE,134,0.0,0.0,97,0.00,,,1.07,Wunderground v.1.15,2013-02-16 02:53:00,
2013-02-15 21:58:00,65.6,64.7,29.98,NNE,17,0.0,1.0,97,0.00,,,1.07,Wunderground v.1.15,2013-02-16 02:58:00,
2013-02-15 22:03:00,65.6,64.7,29.98,NE,44,0.0,1.0,97,0.00,,,1.07,Wunderground v.1.15,2013-02-16 03:03:00,
2013-02-15 22:08:00,65.6,64.7,29.99,NNW,345,0.0,1.0,97,0.00,,,1.07,Wunderground v.1.15,2013-02-16 03:08:00,
2013-02-15 22:13:00,65.6,64.7,29.98,NNE,25,0.0,1.0,97,0.00,,,1.07,Wunderground v.1.15,2013-02-16 03:13:00,
2013-02-15 22:18:00,65.6,64.7,29.98,NNE,25,0.0,1.0,97,0.00,,,1.07,Wunderground v.1.15,2013-02-16 03:18:00,
2013-02-15 22:23:00,65.5,64.6,29.98,NNE,25,0.0,0.0,97,0.00,,,1.07,Wunderground v.1.15,2013-02-16 03:23:00,
2013-02-15 22:28:00,65.5,64.6,29.99,NNE,25,0.0,0.0,97,0.00,,,1.07,Wunderground v.1.15,2013-02-16 03:28:00,
2013-02-15 22:33:00,65.5,64.6,29.99,NNE,25,0.0,0.0,97,0.00,,,1.07,Wunderground v.1.15,2013-02-16 03:33:00,
2013-02-15 22:38:00,65.4,64.5,29.99,North,11,0.0,1.0,97,0.00,,,1.07,Wunderground v.1.15,2013-02-16 03:38:00,
2013-02-15 22:44:00,65.3,64.4,29.98,North,11,0.0,1.0,97,0.00,,,1.07,Wunderground v.1.15,2013-02-16 03:44:00,
2013-02-15 22:49:00,65.2,64.3,29.98,North,11,0.0,1.0,97,0.00,,,1.07,Wunderground v.1.15,2013-02-16 03:49:00,
2013-02-15 22:54:00,65.2,64.3,29.98,NNE,12,0.0,0.0,97,0.00,,,1.07,Wunderground v.1.15,2013-02-16 03:54:00,
2013-02-15 22:59:00,65.2,64.6,29.98,North,11,0.0,0.0,98,0.00,,,1.07,Wunderground v.1.15,2013-02-16 03:59:00,
2013-02-15 23:04:00,65.2,64.6,29.98,North,11,0.0,0.0,98,0.00,,,1.07,Wunderground v.1.15,2013-02-16 04:04:00,
2013-02-15 23:09:00,65.2,64.6,29.98,North,8,0.0,1.0,98,0.00,,,1.07,Wunderground v.1.15,2013-02-16 04:09:00,
2013-02-15 23:14:00,65.4,64.8,29.98,North,353,0.0,0.0,98,0.00,,,1.07,Wunderground v.1.15,2013-02-16 04:14:00,
2013-02-15 23:19:00,65.3,64.4,29.98,North,353,0.0,1.0,97,0.00,,,1.07,Wunderground v.1.15,2013-02-16 04:19:00,
2013-02-15 23:24:00,65.4,64.5,29.98,North,353,0.0,0.0,97,0.00,,,1.07,Wunderground v.1.15,2013-02-16 04:24:00,
2013-02-15 23:29:00,65.3,64.4,29.98,North,353,0.0,1.0,97,0.00,,,1.07,Wunderground v.1.15,2013-02-16 04:29:00,
2013-02-15 23:34:00,65.4,64.5,29.97,North,353,0.0,1.0,97,0.00,,,1.07,Wunderground v.1.15,2013-02-16 04:34:00,
2013-02-15 23:39:00,65.4,64.5,29.97,NW,312,0.0,1.0,97,0.00,,,1.07,Wunderground v.1.15,2013-02-16 04:39:00,
2013-02-15 23:44:00,65.4,64.5,29.97,NW,312,0.0,0.0,97,0.00,,,1.07,Wunderground v.1.15,2013-02-16 04:44:00,
2013-02-15 23:49:00,65.5,64.6,29.97,NW,309,0.0,1.0,97,0.00,,,1.07,Wunderground v.1.15,2013-02-16 04:49:00,
2013-02-15 23:54:00,65.6,65.0,29.97,NW,312,0.0,0.0,98,0.00,,,1.07,Wunderground v.1.15,2013-02-16 04:54:00,
2013-02-15 23:59:00,65.7,64.8,29.97,NW,312,0.0,0.0,97,0.00,,,1.07,Wunderground v.1.15,2013-02-16 04:59:00,